sensor_id;sensor_type;location;lat;lon;timestamp;P1;durP1;ratioP1;P2;durP2;ratioP2
1410;SDS011;700;51.906;8.404;2023-12-04T00:01:23;25.93;;;15.20;;
1410;SDS011;700;51.906;8.404;2023-12-04T00:06:26;25.27;;;14.60;;
1410;SDS011;700;51.906;8.404;2023-12-04T00:11:26;26.20;;;14.37;;
1410;SDS011;700;51.906;8.404;2023-12-04T00:16:29;27.07;;;14.50;;
1410;SDS011;700;51.906;8.404;2023-12-04T00:21:34;26.63;;;13.90;;
1410;SDS011;700;51.906;8.404;2023-12-04T00:26:37;24.30;;;14.00;;
1410;SDS011;700;51.906;8.404;2023-12-04T00:31:41;25.17;;;12.40;;
1410;SDS011;700;51.906;8.404;2023-12-04T00:36:44;26.57;;;13.17;;
1410;SDS011;700;51.906;8.404;2023-12-04T00:41:47;25.00;;;13.20;;
1410;SDS011;700;51.906;8.404;2023-12-04T00:46:47;23.00;;;11.93;;
1410;SDS011;700;51.906;8.404;2023-12-04T00:51:50;22.37;;;12.27;;
1410;SDS011;700;51.906;8.404;2023-12-04T00:56:51;24.40;;;13.03;;
1410;SDS011;700;51.906;8.404;2023-12-04T01:01:51;24.23;;;12.87;;
1410;SDS011;700;51.906;8.404;2023-12-04T01:06:52;23.37;;;14.03;;
1410;SDS011;700;51.906;8.404;2023-12-04T01:11:55;21.90;;;11.70;;
1410;SDS011;700;51.906;8.404;2023-12-04T01:16:56;20.83;;;12.83;;
1410;SDS011;700;51.906;8.404;2023-12-04T01:21:59;21.67;;;12.10;;
1410;SDS011;700;51.906;8.404;2023-12-04T01:27:02;23.27;;;14.17;;
1410;SDS011;700;51.906;8.404;2023-12-04T01:32:02;24.13;;;13.10;;
1410;SDS011;700;51.906;8.404;2023-12-04T01:37:06;23.20;;;13.23;;
1410;SDS011;700;51.906;8.404;2023-12-04T01:42:09;26.77;;;14.07;;
1410;SDS011;700;51.906;8.404;2023-12-04T01:47:10;23.23;;;13.10;;
1410;SDS011;700;51.906;8.404;2023-12-04T01:52:14;26.60;;;13.77;;
1410;SDS011;700;51.906;8.404;2023-12-04T01:57:15;25.97;;;14.03;;
1410;SDS011;700;51.906;8.404;2023-12-04T02:02:15;21.30;;;12.70;;
1410;SDS011;700;51.906;8.404;2023-12-04T02:07:16;21.77;;;13.50;;
1410;SDS011;700;51.906;8.404;2023-12-04T02:12:17;24.00;;;11.87;;
1410;SDS011;700;51.906;8.404;2023-12-04T02:17:17;23.13;;;12.60;;
1410;SDS011;700;51.906;8.404;2023-12-04T02:22:19;23.00;;;11.50;;
1410;SDS011;700;51.906;8.404;2023-12-04T02:27:20;21.20;;;11.90;;
1410;SDS011;700;51.906;8.404;2023-12-04T02:32:28;23.00;;;12.47;;
1410;SDS011;700;51.906;8.404;2023-12-04T02:37:34;18.67;;;10.67;;
1410;SDS011;700;51.906;8.404;2023-12-04T02:42:34;19.60;;;11.00;;
1410;SDS011;700;51.906;8.404;2023-12-04T02:47:37;21.13;;;11.90;;
1410;SDS011;700;51.906;8.404;2023-12-04T02:52:40;20.20;;;11.07;;
1410;SDS011;700;51.906;8.404;2023-12-04T02:57:41;17.93;;;11.03;;
1410;SDS011;700;51.906;8.404;2023-12-04T03:02:43;16.83;;;10.33;;
1410;SDS011;700;51.906;8.404;2023-12-04T03:07:44;18.47;;;11.90;;
1410;SDS011;700;51.906;8.404;2023-12-04T03:12:45;17.97;;;11.63;;
1410;SDS011;700;51.906;8.404;2023-12-04T03:17:48;19.20;;;11.20;;
1410;SDS011;700;51.906;8.404;2023-12-04T03:22:49;16.07;;;9.90;;
1410;SDS011;700;51.906;8.404;2023-12-04T03:27:50;15.90;;;10.10;;
1410;SDS011;700;51.906;8.404;2023-12-04T03:32:52;14.90;;;9.23;;
1410;SDS011;700;51.906;8.404;2023-12-04T03:37:53;14.07;;;9.00;;
1410;SDS011;700;51.906;8.404;2023-12-04T03:42:54;15.70;;;9.97;;
1410;SDS011;700;51.906;8.404;2023-12-04T03:47:55;15.93;;;9.53;;
1410;SDS011;700;51.906;8.404;2023-12-04T03:52:55;14.43;;;10.03;;
1410;SDS011;700;51.906;8.404;2023-12-04T03:57:58;16.33;;;10.03;;
1410;SDS011;700;51.906;8.404;2023-12-04T04:02:59;18.50;;;9.50;;
1410;SDS011;700;51.906;8.404;2023-12-04T04:08:02;16.00;;;9.60;;
1410;SDS011;700;51.906;8.404;2023-12-04T04:13:03;15.97;;;9.43;;
1410;SDS011;700;51.906;8.404;2023-12-04T04:18:06;16.83;;;9.60;;
1410;SDS011;700;51.906;8.404;2023-12-04T04:23:09;16.43;;;9.30;;
1410;SDS011;700;51.906;8.404;2023-12-04T04:28:10;11.67;;;9.50;;
1410;SDS011;700;51.906;8.404;2023-12-04T04:33:15;16.67;;;9.30;;
1410;SDS011;700;51.906;8.404;2023-12-04T04:38:17;16.83;;;9.70;;
1410;SDS011;700;51.906;8.404;2023-12-04T04:43:18;14.57;;;9.20;;
1410;SDS011;700;51.906;8.404;2023-12-04T04:48:19;14.20;;;8.57;;
1410;SDS011;700;51.906;8.404;2023-12-04T04:53:22;13.23;;;9.23;;
1410;SDS011;700;51.906;8.404;2023-12-04T04:58:25;12.27;;;8.40;;
1410;SDS011;700;51.906;8.404;2023-12-04T05:03:28;12.13;;;7.90;;
1410;SDS011;700;51.906;8.404;2023-12-04T05:08:31;13.17;;;8.73;;
1410;SDS011;700;51.906;8.404;2023-12-04T05:13:32;12.10;;;8.13;;
1410;SDS011;700;51.906;8.404;2023-12-04T05:18:32;14.83;;;7.97;;
1410;SDS011;700;51.906;8.404;2023-12-04T05:23:38;11.80;;;8.07;;
1410;SDS011;700;51.906;8.404;2023-12-04T05:28:43;10.70;;;7.70;;
1410;SDS011;700;51.906;8.404;2023-12-04T05:33:44;11.70;;;7.30;;
1410;SDS011;700;51.906;8.404;2023-12-04T05:38:45;14.07;;;8.00;;
1410;SDS011;700;51.906;8.404;2023-12-04T05:43:46;12.63;;;8.20;;
1410;SDS011;700;51.906;8.404;2023-12-04T05:48:47;13.17;;;7.80;;
1410;SDS011;700;51.906;8.404;2023-12-04T05:53:48;14.20;;;7.80;;
1410;SDS011;700;51.906;8.404;2023-12-04T05:58:48;11.80;;;8.33;;
1410;SDS011;700;51.906;8.404;2023-12-04T06:03:49;11.40;;;7.70;;
1410;SDS011;700;51.906;8.404;2023-12-04T06:08:52;11.10;;;7.53;;
1410;SDS011;700;51.906;8.404;2023-12-04T06:13:55;11.63;;;7.40;;
1410;SDS011;700;51.906;8.404;2023-12-04T06:18:58;11.70;;;8.53;;
1410;SDS011;700;51.906;8.404;2023-12-04T06:23:59;13.20;;;7.73;;
1410;SDS011;700;51.906;8.404;2023-12-04T06:29:00;13.73;;;8.20;;
1410;SDS011;700;51.906;8.404;2023-12-04T06:34:00;13.57;;;8.47;;
1410;SDS011;700;51.906;8.404;2023-12-04T06:39:01;14.10;;;8.03;;
1410;SDS011;700;51.906;8.404;2023-12-04T06:44:08;15.27;;;9.10;;
1410;SDS011;700;51.906;8.404;2023-12-04T06:49:10;15.10;;;8.70;;
1410;SDS011;700;51.906;8.404;2023-12-04T06:54:16;13.70;;;8.20;;
1410;SDS011;700;51.906;8.404;2023-12-04T06:59:18;15.07;;;7.90;;
1410;SDS011;700;51.906;8.404;2023-12-04T07:04:19;14.40;;;8.67;;
1410;SDS011;700;51.906;8.404;2023-12-04T07:09:22;14.20;;;8.37;;
1410;SDS011;700;51.906;8.404;2023-12-04T07:14:25;13.40;;;8.80;;
1410;SDS011;700;51.906;8.404;2023-12-04T07:19:26;12.30;;;8.10;;
1410;SDS011;700;51.906;8.404;2023-12-04T07:24:27;12.97;;;8.23;;
1410;SDS011;700;51.906;8.404;2023-12-04T07:29:30;11.47;;;8.40;;
1410;SDS011;700;51.906;8.404;2023-12-04T07:34:30;10.93;;;7.27;;
1410;SDS011;700;51.906;8.404;2023-12-04T07:39:31;12.80;;;7.70;;
1410;SDS011;700;51.906;8.404;2023-12-04T07:44:34;12.10;;;9.05;;
1410;SDS011;700;51.906;8.404;2023-12-04T07:49:37;11.45;;;8.98;;
1410;SDS011;700;51.906;8.404;2023-12-04T07:54:41;13.30;;;8.33;;
1410;SDS011;700;51.906;8.404;2023-12-04T07:59:42;12.07;;;8.10;;
1410;SDS011;700;51.906;8.404;2023-12-04T08:04:43;12.00;;;7.27;;
1410;SDS011;700;51.906;8.404;2023-12-04T08:09:44;12.33;;;8.30;;
1410;SDS011;700;51.906;8.404;2023-12-04T08:14:47;13.73;;;7.87;;
1410;SDS011;700;51.906;8.404;2023-12-04T08:19:47;11.43;;;7.20;;
1410;SDS011;700;51.906;8.404;2023-12-04T08:24:48;11.47;;;8.07;;
1410;SDS011;700;51.906;8.404;2023-12-04T08:29:48;13.23;;;6.53;;
1410;SDS011;700;51.906;8.404;2023-12-04T08:34:52;11.17;;;6.77;;
1410;SDS011;700;51.906;8.404;2023-12-04T08:39:52;11.97;;;7.00;;
1410;SDS011;700;51.906;8.404;2023-12-04T08:44:55;15.00;;;9.00;;
1410;SDS011;700;51.906;8.404;2023-12-04T08:49:59;9.60;;;6.83;;
1410;SDS011;700;51.906;8.404;2023-12-04T08:55:00;13.77;;;8.00;;
1410;SDS011;700;51.906;8.404;2023-12-04T09:00:04;13.47;;;7.67;;
1410;SDS011;700;51.906;8.404;2023-12-04T09:05:05;11.07;;;7.77;;
1410;SDS011;700;51.906;8.404;2023-12-04T09:10:06;10.57;;;7.10;;
1410;SDS011;700;51.906;8.404;2023-12-04T09:15:07;11.87;;;6.77;;
1410;SDS011;700;51.906;8.404;2023-12-04T09:20:07;8.60;;;6.77;;
1410;SDS011;700;51.906;8.404;2023-12-04T09:25:09;10.10;;;6.77;;
1410;SDS011;700;51.906;8.404;2023-12-04T09:30:10;10.37;;;6.77;;
1410;SDS011;700;51.906;8.404;2023-12-04T09:35:13;9.20;;;6.47;;
1410;SDS011;700;51.906;8.404;2023-12-04T09:40:19;8.60;;;6.37;;
1410;SDS011;700;51.906;8.404;2023-12-04T09:45:22;8.90;;;6.20;;
1410;SDS011;700;51.906;8.404;2023-12-04T09:50:24;9.27;;;5.53;;
1410;SDS011;700;51.906;8.404;2023-12-04T09:55:25;11.67;;;6.90;;
1410;SDS011;700;51.906;8.404;2023-12-04T10:00:26;10.60;;;6.30;;
1410;SDS011;700;51.906;8.404;2023-12-04T10:05:30;12.17;;;7.37;;
1410;SDS011;700;51.906;8.404;2023-12-04T10:10:35;10.63;;;6.90;;
1410;SDS011;700;51.906;8.404;2023-12-04T10:15:45;10.87;;;6.80;;
1410;SDS011;700;51.906;8.404;2023-12-04T10:20:54;9.10;;;5.67;;
1410;SDS011;700;51.906;8.404;2023-12-04T10:25:59;7.97;;;5.70;;
1410;SDS011;700;51.906;8.404;2023-12-04T10:31:00;8.10;;;6.30;;
1410;SDS011;700;51.906;8.404;2023-12-04T10:36:02;9.87;;;6.97;;
1410;SDS011;700;51.906;8.404;2023-12-04T10:41:12;10.00;;;6.70;;
1410;SDS011;700;51.906;8.404;2023-12-04T10:46:14;11.20;;;7.17;;
1410;SDS011;700;51.906;8.404;2023-12-04T10:51:17;11.07;;;6.40;;
1410;SDS011;700;51.906;8.404;2023-12-04T10:56:25;10.83;;;6.67;;
1410;SDS011;700;51.906;8.404;2023-12-04T11:01:36;9.67;;;7.00;;
1410;SDS011;700;51.906;8.404;2023-12-04T11:06:38;12.30;;;7.03;;
1410;SDS011;700;51.906;8.404;2023-12-04T11:11:40;10.80;;;7.40;;
1410;SDS011;700;51.906;8.404;2023-12-04T11:16:47;15.10;;;7.47;;
1410;SDS011;700;51.906;8.404;2023-12-04T11:21:50;11.98;;;8.70;;
1410;SDS011;700;51.906;8.404;2023-12-04T11:26:51;16.57;;;8.53;;
1410;SDS011;700;51.906;8.404;2023-12-04T11:31:56;10.50;;;7.10;;
1410;SDS011;700;51.906;8.404;2023-12-04T11:36:57;11.07;;;7.73;;
1410;SDS011;700;51.906;8.404;2023-12-04T11:41:58;10.57;;;7.10;;
1410;SDS011;700;51.906;8.404;2023-12-04T11:47:04;8.80;;;6.23;;
1410;SDS011;700;51.906;8.404;2023-12-04T11:52:05;9.87;;;6.40;;
1410;SDS011;700;51.906;8.404;2023-12-04T12:02:13;13.03;;;7.77;;
1410;SDS011;700;51.906;8.404;2023-12-04T12:07:16;11.03;;;6.80;;
1410;SDS011;700;51.906;8.404;2023-12-04T12:12:17;10.37;;;7.10;;
1410;SDS011;700;51.906;8.404;2023-12-04T12:17:18;10.07;;;6.97;;
1410;SDS011;700;51.906;8.404;2023-12-04T12:22:18;10.83;;;6.83;;
1410;SDS011;700;51.906;8.404;2023-12-04T12:27:19;10.70;;;6.93;;
1410;SDS011;700;51.906;8.404;2023-12-04T12:32:27;9.73;;;6.90;;
1410;SDS011;700;51.906;8.404;2023-12-04T12:37:32;10.57;;;6.90;;
1410;SDS011;700;51.906;8.404;2023-12-04T12:42:33;9.73;;;7.53;;
1410;SDS011;700;51.906;8.404;2023-12-04T12:47:34;9.93;;;7.00;;
1410;SDS011;700;51.906;8.404;2023-12-04T12:52:35;10.63;;;6.30;;
1410;SDS011;700;51.906;8.404;2023-12-04T12:57:37;10.40;;;6.53;;
1410;SDS011;700;51.906;8.404;2023-12-04T13:02:38;9.47;;;6.40;;
1410;SDS011;700;51.906;8.404;2023-12-04T13:07:38;8.67;;;5.90;;
1410;SDS011;700;51.906;8.404;2023-12-04T13:12:41;8.83;;;5.90;;
1410;SDS011;700;51.906;8.404;2023-12-04T13:17:42;8.27;;;6.00;;
1410;SDS011;700;51.906;8.404;2023-12-04T13:22:45;8.50;;;6.10;;
1410;SDS011;700;51.906;8.404;2023-12-04T13:27:48;7.53;;;5.70;;
1410;SDS011;700;51.906;8.404;2023-12-04T13:32:49;9.50;;;6.97;;
1410;SDS011;700;51.906;8.404;2023-12-04T13:37:52;8.00;;;5.80;;
1410;SDS011;700;51.906;8.404;2023-12-04T13:42:58;9.20;;;6.43;;
1410;SDS011;700;51.906;8.404;2023-12-04T13:48:20;9.70;;;6.63;;
1410;SDS011;700;51.906;8.404;2023-12-04T13:53:21;9.47;;;6.50;;
1410;SDS011;700;51.906;8.404;2023-12-04T13:58:29;15.43;;;8.97;;
1410;SDS011;700;51.906;8.404;2023-12-04T14:03:43;9.80;;;6.13;;
1410;SDS011;700;51.906;8.404;2023-12-04T14:08:44;9.93;;;5.80;;
1410;SDS011;700;51.906;8.404;2023-12-04T14:13:46;12.10;;;7.43;;
1410;SDS011;700;51.906;8.404;2023-12-04T14:18:46;9.60;;;6.43;;
1410;SDS011;700;51.906;8.404;2023-12-04T14:23:47;12.80;;;7.37;;
1410;SDS011;700;51.906;8.404;2023-12-04T14:28:50;12.00;;;6.90;;
1410;SDS011;700;51.906;8.404;2023-12-04T14:33:50;11.50;;;7.13;;
1410;SDS011;700;51.906;8.404;2023-12-04T14:38:53;9.50;;;6.67;;
1410;SDS011;700;51.906;8.404;2023-12-04T14:43:53;11.23;;;7.10;;
1410;SDS011;700;51.906;8.404;2023-12-04T14:48:54;9.80;;;7.00;;
1410;SDS011;700;51.906;8.404;2023-12-04T14:53:55;9.83;;;6.23;;
1410;SDS011;700;51.906;8.404;2023-12-04T14:59:18;12.33;;;7.33;;
1410;SDS011;700;51.906;8.404;2023-12-04T15:04:38;10.40;;;7.43;;
1410;SDS011;700;51.906;8.404;2023-12-04T15:09:41;9.87;;;7.10;;
1410;SDS011;700;51.906;8.404;2023-12-04T15:15:00;12.07;;;7.97;;
1410;SDS011;700;51.906;8.404;2023-12-04T15:20:30;9.70;;;7.10;;
1410;SDS011;700;51.906;8.404;2023-12-04T15:25:38;11.50;;;7.40;;
1410;SDS011;700;51.906;8.404;2023-12-04T15:30:40;12.23;;;8.20;;
1410;SDS011;700;51.906;8.404;2023-12-04T15:35:43;12.50;;;7.73;;
1410;SDS011;700;51.906;8.404;2023-12-04T15:40:44;11.07;;;7.40;;
1410;SDS011;700;51.906;8.404;2023-12-04T15:45:45;11.60;;;8.10;;
1410;SDS011;700;51.906;8.404;2023-12-04T15:50:45;10.83;;;7.30;;
1410;SDS011;700;51.906;8.404;2023-12-04T15:55:46;10.43;;;6.97;;
1410;SDS011;700;51.906;8.404;2023-12-04T16:00:49;10.87;;;7.50;;
1410;SDS011;700;51.906;8.404;2023-12-04T16:05:50;10.67;;;6.70;;
1410;SDS011;700;51.906;8.404;2023-12-04T16:10:50;13.60;;;7.83;;
1410;SDS011;700;51.906;8.404;2023-12-04T16:15:51;13.03;;;8.47;;
1410;SDS011;700;51.906;8.404;2023-12-04T16:20:54;12.90;;;7.87;;
1410;SDS011;700;51.906;8.404;2023-12-04T16:25:59;12.20;;;7.93;;
1410;SDS011;700;51.906;8.404;2023-12-04T16:31:00;12.07;;;7.13;;
1410;SDS011;700;51.906;8.404;2023-12-04T16:36:00;10.90;;;7.57;;
1410;SDS011;700;51.906;8.404;2023-12-04T16:41:01;10.00;;;6.77;;
1410;SDS011;700;51.906;8.404;2023-12-04T16:46:02;13.90;;;7.63;;
1410;SDS011;700;51.906;8.404;2023-12-04T16:51:04;10.70;;;6.40;;
1410;SDS011;700;51.906;8.404;2023-12-04T16:56:11;13.47;;;7.40;;
1410;SDS011;700;51.906;8.404;2023-12-04T17:01:12;13.93;;;6.90;;
1410;SDS011;700;51.906;8.404;2023-12-04T17:06:13;12.03;;;6.90;;
1410;SDS011;700;51.906;8.404;2023-12-04T17:11:16;8.63;;;5.70;;
1410;SDS011;700;51.906;8.404;2023-12-04T17:16:17;10.33;;;6.30;;
1410;SDS011;700;51.906;8.404;2023-12-04T17:21:19;13.10;;;6.47;;
1410;SDS011;700;51.906;8.404;2023-12-04T17:26:22;12.40;;;6.70;;
1410;SDS011;700;51.906;8.404;2023-12-04T17:31:22;8.60;;;6.00;;
1410;SDS011;700;51.906;8.404;2023-12-04T17:36:23;12.00;;;5.30;;
1410;SDS011;700;51.906;8.404;2023-12-04T17:41:27;8.47;;;5.47;;
1410;SDS011;700;51.906;8.404;2023-12-04T17:46:27;9.47;;;6.10;;
1410;SDS011;700;51.906;8.404;2023-12-04T17:51:30;8.90;;;5.50;;
1410;SDS011;700;51.906;8.404;2023-12-04T17:56:34;9.67;;;5.60;;
1410;SDS011;700;51.906;8.404;2023-12-04T18:01:35;8.30;;;6.60;;
1410;SDS011;700;51.906;8.404;2023-12-04T18:06:35;8.70;;;6.03;;
1410;SDS011;700;51.906;8.404;2023-12-04T18:11:38;10.40;;;6.10;;
1410;SDS011;700;51.906;8.404;2023-12-04T18:16:39;9.43;;;6.80;;
1410;SDS011;700;51.906;8.404;2023-12-04T18:21:40;9.70;;;5.67;;
1410;SDS011;700;51.906;8.404;2023-12-04T18:26:41;10.17;;;6.23;;
1410;SDS011;700;51.906;8.404;2023-12-04T18:31:42;11.47;;;7.17;;
1410;SDS011;700;51.906;8.404;2023-12-04T18:36:43;9.93;;;6.60;;
1410;SDS011;700;51.906;8.404;2023-12-04T18:41:48;12.43;;;7.73;;
1410;SDS011;700;51.906;8.404;2023-12-04T18:46:51;13.00;;;8.00;;
1410;SDS011;700;51.906;8.404;2023-12-04T18:51:58;11.97;;;8.30;;
1410;SDS011;700;51.906;8.404;2023-12-04T18:56:59;11.10;;;7.37;;
1410;SDS011;700;51.906;8.404;2023-12-04T19:01:59;13.83;;;8.60;;
1410;SDS011;700;51.906;8.404;2023-12-04T19:07:00;11.83;;;7.63;;
1410;SDS011;700;51.906;8.404;2023-12-04T19:12:01;11.40;;;8.20;;
1410;SDS011;700;51.906;8.404;2023-12-04T19:17:05;12.03;;;8.27;;
1410;SDS011;700;51.906;8.404;2023-12-04T19:22:08;16.40;;;9.17;;
1410;SDS011;700;51.906;8.404;2023-12-04T19:27:09;14.43;;;9.10;;
1410;SDS011;700;51.906;8.404;2023-12-04T19:32:14;16.20;;;9.90;;
1410;SDS011;700;51.906;8.404;2023-12-04T19:37:15;15.80;;;9.67;;
1410;SDS011;700;51.906;8.404;2023-12-04T19:42:18;13.90;;;8.90;;
1410;SDS011;700;51.906;8.404;2023-12-04T19:47:21;13.80;;;9.60;;
1410;SDS011;700;51.906;8.404;2023-12-04T19:52:21;15.50;;;9.30;;
1410;SDS011;700;51.906;8.404;2023-12-04T19:57:22;15.23;;;9.00;;
1410;SDS011;700;51.906;8.404;2023-12-04T20:02:24;15.10;;;8.50;;
1410;SDS011;700;51.906;8.404;2023-12-04T20:07:27;14.03;;;8.23;;
1410;SDS011;700;51.906;8.404;2023-12-04T20:12:28;10.87;;;7.80;;
1410;SDS011;700;51.906;8.404;2023-12-04T20:17:29;12.50;;;7.93;;
1410;SDS011;700;51.906;8.404;2023-12-04T20:22:30;12.57;;;7.90;;
1410;SDS011;700;51.906;8.404;2023-12-04T20:27:31;11.73;;;7.27;;
1410;SDS011;700;51.906;8.404;2023-12-04T20:32:33;9.67;;;7.23;;
1410;SDS011;700;51.906;8.404;2023-12-04T20:37:39;11.20;;;8.13;;
1410;SDS011;700;51.906;8.404;2023-12-04T20:42:39;13.20;;;7.70;;
1410;SDS011;700;51.906;8.404;2023-12-04T20:47:42;10.73;;;7.40;;
1410;SDS011;700;51.906;8.404;2023-12-04T20:52:43;11.97;;;7.73;;
1410;SDS011;700;51.906;8.404;2023-12-04T20:57:44;12.63;;;6.70;;
1410;SDS011;700;51.906;8.404;2023-12-04T21:02:45;11.87;;;7.17;;
1410;SDS011;700;51.906;8.404;2023-12-04T21:07:45;12.57;;;7.83;;
1410;SDS011;700;51.906;8.404;2023-12-04T21:12:48;13.00;;;8.63;;
1410;SDS011;700;51.906;8.404;2023-12-04T21:17:49;10.07;;;6.43;;
1410;SDS011;700;51.906;8.404;2023-12-04T21:22:50;11.17;;;7.80;;
1410;SDS011;700;51.906;8.404;2023-12-04T21:27:51;12.13;;;7.87;;
1410;SDS011;700;51.906;8.404;2023-12-04T21:32:51;11.50;;;7.90;;
1410;SDS011;700;51.906;8.404;2023-12-04T21:37:54;11.00;;;7.70;;
1410;SDS011;700;51.906;8.404;2023-12-04T21:42:55;14.00;;;8.80;;
1410;SDS011;700;51.906;8.404;2023-12-04T21:47:56;10.50;;;7.53;;
1410;SDS011;700;51.906;8.404;2023-12-04T21:52:56;10.67;;;7.43;;
1410;SDS011;700;51.906;8.404;2023-12-04T21:57:59;10.33;;;7.50;;
1410;SDS011;700;51.906;8.404;2023-12-04T22:03:00;10.50;;;7.67;;
1410;SDS011;700;51.906;8.404;2023-12-04T22:08:03;10.70;;;7.83;;
1410;SDS011;700;51.906;8.404;2023-12-04T22:13:08;11.10;;;8.27;;
1410;SDS011;700;51.906;8.404;2023-12-04T22:18:09;10.50;;;6.33;;
1410;SDS011;700;51.906;8.404;2023-12-04T22:23:14;10.77;;;7.53;;
1410;SDS011;700;51.906;8.404;2023-12-04T22:28:16;8.50;;;6.67;;
1410;SDS011;700;51.906;8.404;2023-12-04T22:33:17;10.10;;;7.37;;
1410;SDS011;700;51.906;8.404;2023-12-04T22:38:18;10.40;;;7.80;;
1410;SDS011;700;51.906;8.404;2023-12-04T22:43:18;10.87;;;7.77;;
1410;SDS011;700;51.906;8.404;2023-12-04T22:48:19;9.93;;;7.23;;
1410;SDS011;700;51.906;8.404;2023-12-04T22:53:20;10.17;;;7.27;;
1410;SDS011;700;51.906;8.404;2023-12-04T22:58:23;9.20;;;6.50;;
1410;SDS011;700;51.906;8.404;2023-12-04T23:03:26;10.67;;;7.50;;
1410;SDS011;700;51.906;8.404;2023-12-04T23:08:27;11.03;;;6.83;;
1410;SDS011;700;51.906;8.404;2023-12-04T23:13:27;11.40;;;6.93;;
1410;SDS011;700;51.906;8.404;2023-12-04T23:18:28;8.80;;;6.40;;
1410;SDS011;700;51.906;8.404;2023-12-04T23:23:28;11.90;;;6.53;;
1410;SDS011;700;51.906;8.404;2023-12-04T23:28:31;10.70;;;7.57;;
1410;SDS011;700;51.906;8.404;2023-12-04T23:33:32;9.00;;;6.73;;
1410;SDS011;700;51.906;8.404;2023-12-04T23:38:35;10.03;;;6.90;;
1410;SDS011;700;51.906;8.404;2023-12-04T23:43:36;9.13;;;7.07;;
1410;SDS011;700;51.906;8.404;2023-12-04T23:48:36;9.70;;;6.43;;
1410;SDS011;700;51.906;8.404;2023-12-04T23:53:38;11.80;;;7.33;;
1410;SDS011;700;51.906;8.404;2023-12-04T23:58:39;9.20;;;6.80;;
